createdAt,value
2018-06-23T00:00:58.666Z,47.50
2018-06-23T00:03:27.357Z,47.89
2018-06-23T00:05:55.988Z,47.36
2018-06-23T00:08:24.607Z,47.78
2018-06-23T00:10:53.285Z,47.66
2018-06-23T00:13:22.015Z,47.94
2018-06-23T00:15:50.563Z,47.54
2018-06-23T00:18:19.191Z,47.55
2018-06-23T00:20:47.861Z,47.75
2018-06-23T00:23:16.466Z,47.42
2018-06-23T00:25:50.128Z,47.97
2018-06-23T00:28:18.651Z,48.26
2018-06-23T00:30:47.240Z,48.71
2018-06-23T00:33:15.800Z,49.03
2018-06-23T00:35:44.438Z,48.56
2018-06-23T00:38:13.234Z,48.67
2018-06-23T00:40:41.999Z,48.67
2018-06-23T00:43:10.795Z,49.06
2018-06-23T00:45:39.663Z,48.96
2018-06-23T00:48:08.373Z,49.09
2018-06-23T00:50:37.378Z,49.10
2018-06-23T00:53:06.275Z,49.46
2018-06-23T00:55:35.199Z,49.44
2018-06-23T00:58:03.993Z,49.70
2018-06-23T01:00:32.787Z,49.16
2018-06-23T01:03:01.632Z,49.85
2018-06-23T01:05:30.296Z,48.92
2018-06-23T01:07:59.263Z,49.48
2018-06-23T01:10:28.454Z,49.72
2018-06-23T01:12:57.261Z,49.33
2018-06-23T01:15:26.042Z,49.41
2018-06-23T01:17:54.943Z,49.66
2018-06-23T01:20:23.547Z,49.08
2018-06-23T01:22:52.145Z,49.84
2018-06-23T01:25:20.815Z,49.71
2018-06-23T01:27:49.399Z,50.05
2018-06-23T01:30:17.954Z,49.98
2018-06-23T01:32:46.604Z,49.55
2018-06-23T01:35:15.210Z,49.26
2018-06-23T01:37:44.008Z,49.61
2018-06-23T01:40:12.642Z,50.04
2018-06-23T01:42:41.238Z,50.47
2018-06-23T01:45:09.857Z,49.64
2018-06-23T01:47:38.541Z,50.59
2018-06-23T01:50:07.174Z,49.83
2018-06-23T01:52:35.855Z,49.66
2018-06-23T01:55:04.608Z,49.81
2018-06-23T01:57:33.237Z,49.84
2018-06-23T02:00:01.851Z,50.52
2018-06-23T02:02:30.700Z,50.21
2018-06-23T02:04:59.344Z,50.61
2018-06-23T02:07:28.060Z,50.41
2018-06-23T02:09:56.628Z,50.67
2018-06-23T02:12:25.354Z,50.87
2018-06-23T02:14:59.103Z,50.61
2018-06-23T02:17:32.916Z,51.20
2018-06-23T02:20:06.677Z,50.87
2018-06-23T02:22:40.410Z,50.82
2018-06-23T02:25:14.165Z,50.69
2018-06-23T02:27:47.863Z,51.08
2018-06-23T02:30:21.599Z,50.76
2018-06-23T02:32:52.677Z,50.14
2018-06-23T02:35:21.700Z,50.86
2018-06-23T02:37:50.436Z,50.59
2018-06-23T02:40:19.029Z,50.83
2018-06-23T02:42:47.663Z,50.67
2018-06-23T02:45:16.225Z,50.38
2018-06-23T02:47:44.798Z,50.22
2018-06-23T02:50:13.445Z,50.51
2018-06-23T02:52:41.988Z,50.27
2018-06-23T02:55:10.566Z,50.59
2018-06-23T02:57:39.151Z,50.27
2018-06-23T03:00:07.817Z,50.22
2018-06-23T03:02:36.404Z,50.37
2018-06-23T03:05:04.998Z,50.67
2018-06-23T03:07:33.670Z,50.27
2018-06-23T03:10:02.252Z,50.17
2018-06-23T03:12:30.859Z,50.45
2018-06-23T03:14:59.431Z,51.05
2018-06-23T03:17:28.014Z,50.56
2018-06-23T03:19:56.675Z,50.81
2018-06-23T03:22:25.231Z,50.44
2018-06-23T03:24:53.874Z,51.67
2018-06-23T03:27:22.441Z,51.23
2018-06-23T03:29:51.059Z,51.97
2018-06-23T03:32:19.626Z,51.25
2018-06-23T03:34:48.167Z,51.81
2018-06-23T03:37:16.745Z,51.84
2018-06-23T03:39:45.475Z,51.29
2018-06-23T03:42:14.063Z,51.63
2018-06-23T03:44:42.636Z,51.87
2018-06-23T03:47:12.118Z,51.67
2018-06-23T03:49:40.707Z,51.71
2018-06-23T03:54:50.473Z,51.81
2018-06-23T03:57:19.225Z,51.62
2018-06-23T03:59:48.086Z,52.03
2018-06-23T04:02:16.745Z,51.89
2018-06-23T04:04:45.875Z,52.57
2018-06-23T04:07:14.484Z,52.36
2018-06-23T04:09:43.094Z,52.13
2018-06-23T04:12:20.639Z,51.77
2018-06-23T04:14:51.531Z,52.18
2018-06-23T04:17:20.220Z,52.04
2018-06-23T04:19:48.864Z,52.40
2018-06-23T04:22:17.447Z,52.41
2018-06-23T04:24:46.377Z,52.27
2018-06-23T04:27:14.928Z,52.05
2018-06-23T04:29:44.060Z,52.14
2018-06-23T04:32:12.863Z,52.06
2018-06-23T04:34:41.544Z,52.98
2018-06-23T04:37:10.201Z,52.97
2018-06-23T04:39:38.802Z,52.10
2018-06-23T04:42:08.073Z,51.85
2018-06-23T04:44:36.772Z,52.44
2018-06-23T04:47:05.556Z,52.20
2018-06-23T04:49:35.373Z,52.17
2018-06-23T04:52:03.956Z,52.29
2018-06-23T04:54:32.485Z,51.82
2018-06-23T04:57:00.984Z,52.00
2018-06-23T04:59:29.518Z,52.19
2018-06-23T05:01:58.095Z,52.02
2018-06-23T05:04:26.643Z,51.76
2018-06-23T05:06:55.538Z,50.94
2018-06-23T05:09:24.231Z,51.07
2018-06-23T05:11:52.799Z,50.77
2018-06-23T05:14:21.507Z,50.29
2018-06-23T05:16:50.053Z,50.58
2018-06-23T05:19:18.889Z,50.34
2018-06-23T05:21:47.606Z,50.26
2018-06-23T05:24:16.233Z,50.07
2018-06-23T05:26:44.828Z,49.87
2018-06-23T05:29:14.285Z,49.87
2018-06-23T05:31:42.834Z,50.35
2018-06-23T05:34:11.602Z,50.64
2018-06-23T05:36:40.397Z,49.96
2018-06-23T05:39:10.064Z,49.22
2018-06-23T05:41:38.787Z,49.84
2018-06-23T05:44:07.391Z,49.57
2018-06-23T05:46:36.106Z,49.04
2018-06-23T05:49:05.564Z,48.41
2018-06-23T05:51:34.130Z,48.72
2018-06-23T05:54:02.717Z,47.94
2018-06-23T05:56:31.348Z,48.12
2018-06-23T05:58:59.946Z,48.50
2018-06-23T06:01:28.562Z,48.78
2018-06-23T06:03:57.236Z,49.26
2018-06-23T06:06:25.753Z,48.83
2018-06-23T06:08:54.329Z,48.94
2018-06-23T06:11:22.960Z,48.68
2018-06-23T06:13:51.613Z,49.10
2018-06-23T06:16:26.516Z,49.48
2018-06-23T06:18:55.558Z,49.18
2018-06-23T06:21:24.370Z,48.40
2018-06-23T06:23:53.101Z,48.55
2018-06-23T06:26:21.787Z,48.77
2018-06-23T06:28:53.678Z,49.79
2018-06-23T06:31:23.282Z,49.17
2018-06-23T06:33:53.271Z,49.30
2018-06-23T06:36:22.086Z,48.93
2018-06-23T06:38:50.971Z,49.37
2018-06-23T06:41:19.781Z,49.59
2018-06-23T06:43:48.579Z,49.98
2018-06-23T06:46:17.278Z,49.69
2018-06-23T06:48:46.051Z,50.41
2018-06-23T06:51:14.650Z,49.24
2018-06-23T06:53:43.379Z,49.86
2018-06-23T06:56:12.816Z,50.67
2018-06-23T06:58:41.470Z,50.16
2018-06-23T07:01:10.035Z,50.59
2018-06-23T07:03:38.931Z,51.08
2018-06-23T07:06:07.900Z,51.09
2018-06-23T07:08:36.475Z,51.39
2018-06-23T07:11:05.020Z,52.40
2018-06-23T07:13:34.409Z,52.31
2018-06-23T07:16:02.931Z,52.45
2018-06-23T07:18:32.635Z,52.31
2018-06-23T07:21:01.228Z,52.39
2018-06-23T07:23:29.907Z,51.49
2018-06-23T07:25:58.538Z,51.26
2018-06-23T07:28:27.347Z,51.33
2018-06-23T07:30:56.024Z,50.20
2018-06-23T07:33:24.655Z,49.80
2018-06-23T07:35:53.276Z,49.13
2018-06-23T07:38:21.821Z,48.83
2018-06-23T07:40:50.733Z,48.52
2018-06-23T07:43:19.750Z,49.22
2018-06-23T07:45:49.477Z,48.41
2018-06-23T07:48:19.144Z,47.62
2018-06-23T07:50:50.551Z,47.91
2018-06-23T07:53:23.115Z,47.14
2018-06-23T07:55:52.970Z,46.01
2018-06-23T07:58:21.868Z,45.65
2018-06-23T08:00:52.335Z,45.35
2018-06-23T08:03:22.888Z,44.25
2018-06-23T08:05:52.850Z,43.45
2018-06-23T08:08:23.111Z,42.93
2018-06-23T08:10:52.392Z,42.16
2018-06-23T08:13:21.518Z,41.16
2018-06-23T08:15:50.276Z,39.29
2018-06-23T08:18:18.870Z,39.42
2018-06-23T08:20:48.218Z,39.84
2018-06-23T08:23:17.308Z,39.06
2018-06-23T08:25:46.294Z,39.25
2018-06-23T08:28:15.021Z,39.26
2018-06-23T08:30:43.734Z,38.73
2018-06-23T08:33:12.584Z,38.34
2018-06-23T08:35:42.641Z,36.09
2018-06-23T08:38:13.817Z,35.50
2018-06-23T08:40:43.700Z,34.98
2018-06-23T08:43:15.929Z,34.79
2018-06-23T08:45:50.134Z,35.90
2018-06-23T08:48:19.108Z,35.90
2018-06-23T08:50:48.396Z,36.32
2018-06-23T08:53:17.270Z,36.56
2018-06-23T08:55:46.259Z,38.20
2018-06-23T08:58:21.860Z,38.62
2018-06-23T09:00:52.050Z,38.36
2018-06-23T09:03:20.856Z,37.90
2018-06-23T09:06:02.585Z,37.35
2018-06-23T09:08:32.644Z,36.93
2018-06-23T09:11:07.630Z,36.17
2018-06-23T09:13:36.433Z,33.64
2018-06-23T09:16:05.176Z,32.57
2018-06-23T09:18:34.737Z,31.32
2018-06-23T09:21:03.428Z,31.51
2018-06-23T09:23:32.329Z,29.72
2018-06-23T09:26:01.128Z,30.37
2018-06-23T09:28:30.046Z,28.93
2018-06-23T09:30:58.904Z,28.67
2018-06-23T09:33:27.872Z,28.80
2018-06-23T09:35:56.869Z,27.06
2018-06-23T09:38:26.500Z,28.14
2018-06-23T09:40:55.140Z,26.67
2018-06-23T09:43:24.088Z,26.76
2018-06-23T09:45:53.011Z,27.83
2018-06-23T09:48:21.899Z,27.01
2018-06-23T09:50:50.704Z,28.88
2018-06-23T09:53:20.010Z,29.50
2018-06-23T09:55:48.846Z,30.71
2018-06-23T09:58:19.764Z,30.61
2018-06-23T10:00:48.655Z,32.13
2018-06-23T10:03:17.507Z,32.89
2018-06-23T10:05:46.553Z,33.80
2018-06-23T10:08:15.296Z,34.36
2018-06-23T10:10:43.980Z,34.66
2018-06-23T10:13:12.669Z,36.00
2018-06-23T10:15:41.318Z,36.34
2018-06-23T10:18:10.109Z,36.06
2018-06-23T10:20:38.955Z,37.48
2018-06-23T10:23:07.774Z,36.81
2018-06-23T10:25:36.622Z,36.90
2018-06-23T10:28:05.319Z,35.64
2018-06-23T10:30:34.084Z,35.81
2018-06-23T10:33:02.827Z,35.79
2018-06-23T10:35:31.511Z,36.44
2018-06-23T10:38:00.974Z,35.89
2018-06-23T10:40:30.059Z,36.56
2018-06-23T10:42:59.135Z,36.74
2018-06-23T10:45:28.027Z,37.51
2018-06-23T10:47:57.230Z,36.29
2018-06-23T10:50:25.983Z,36.16
2018-06-23T10:52:54.666Z,33.58
2018-06-23T10:55:27.611Z,32.06
2018-06-23T10:57:56.818Z,31.43
2018-06-23T11:00:25.606Z,31.15
2018-06-23T11:02:54.778Z,31.65
2018-06-23T11:05:23.789Z,31.15
2018-06-23T11:07:54.117Z,31.95
2018-06-23T11:10:22.902Z,33.08
2018-06-23T11:12:51.975Z,33.55
2018-06-23T11:15:21.264Z,33.06
2018-06-23T11:17:50.446Z,33.09
2018-06-23T11:20:19.136Z,33.99
2018-06-23T11:22:49.861Z,34.35
2018-06-23T11:25:18.543Z,34.22
2018-06-23T11:27:47.175Z,34.39
2018-06-23T11:30:15.890Z,32.60
2018-06-23T11:32:44.940Z,32.76
2018-06-23T11:35:13.711Z,32.77
2018-06-23T11:37:42.277Z,32.49
2018-06-23T11:40:10.992Z,31.07
2018-06-23T11:42:39.596Z,30.17
2018-06-23T11:45:08.135Z,30.55
2018-06-23T11:47:36.828Z,30.63
2018-06-23T11:50:05.569Z,29.95
2018-06-23T11:52:34.273Z,31.06
2018-06-23T11:55:02.845Z,30.09
2018-06-23T11:57:31.385Z,30.08
2018-06-23T12:00:00.002Z,30.68
2018-06-23T12:02:28.669Z,29.29
2018-06-23T12:04:57.238Z,30.84
2018-06-23T12:07:26.026Z,29.89
2018-06-23T12:09:54.626Z,29.22
2018-06-23T12:12:23.748Z,29.79
2018-06-23T12:14:52.337Z,29.15
2018-06-23T12:17:21.146Z,30.37
2018-06-23T12:19:50.478Z,28.89
2018-06-23T12:22:19.146Z,29.69
2018-06-23T12:24:48.033Z,30.06
2018-06-23T12:27:16.611Z,29.91
2018-06-23T12:29:45.198Z,30.32
2018-06-23T12:32:13.893Z,29.91
2018-06-23T12:34:42.896Z,30.68
2018-06-23T12:37:11.459Z,31.02
2018-06-23T12:39:40.248Z,31.37
2018-06-23T12:42:09.218Z,30.41
2018-06-23T12:44:38.191Z,30.22
2018-06-23T12:47:07.134Z,31.94
2018-06-23T12:49:35.802Z,31.20
2018-06-23T12:52:04.861Z,30.31
2018-06-23T12:54:33.627Z,30.18
2018-06-23T12:57:03.003Z,31.16
2018-06-23T12:59:32.081Z,29.82
2018-06-23T13:02:01.393Z,30.70
2018-06-23T13:04:30.506Z,30.59
2018-06-23T13:06:59.330Z,30.17
2018-06-23T13:09:28.107Z,30.29
2018-06-23T13:11:57.125Z,32.08
2018-06-23T13:14:26.328Z,31.11
2018-06-23T13:16:55.461Z,31.09
2018-06-23T13:19:24.140Z,29.92
2018-06-23T13:21:53.999Z,30.54
2018-06-23T13:24:22.669Z,29.91
2018-06-23T13:26:51.588Z,30.49
2018-06-23T13:29:20.476Z,29.87
2018-06-23T13:31:49.379Z,30.32
2018-06-23T13:34:18.168Z,31.14
2018-06-23T13:36:46.833Z,31.14
2018-06-23T13:39:15.588Z,30.57
2018-06-23T13:41:44.184Z,30.35
2018-06-23T13:44:12.854Z,31.29
2018-06-23T13:46:41.517Z,30.89
2018-06-23T13:49:10.122Z,31.29
2018-06-23T13:51:38.606Z,31.20
2018-06-23T13:54:07.370Z,31.59
2018-06-23T13:56:35.925Z,31.40
2018-06-23T13:59:04.687Z,31.90
2018-06-23T14:01:33.489Z,32.24
2018-06-23T14:04:02.351Z,33.31
2018-06-23T14:06:31.065Z,33.41
2018-06-23T14:08:59.693Z,33.56
2018-06-23T14:11:28.412Z,33.59
2018-06-23T14:13:57.137Z,34.01
2018-06-23T14:16:25.762Z,34.75
2018-06-23T14:18:54.429Z,35.23
2018-06-23T14:21:23.202Z,35.64
2018-06-23T14:23:52.296Z,35.05
2018-06-23T14:26:20.978Z,35.48
2018-06-23T14:28:50.322Z,35.96
2018-06-23T14:31:19.485Z,34.93
2018-06-23T14:33:48.985Z,34.94
2018-06-23T14:36:19.676Z,35.35
2018-06-23T14:38:48.348Z,34.27
2018-06-23T14:41:17.753Z,35.40
2018-06-23T14:43:46.456Z,35.29
2018-06-23T14:46:15.160Z,35.00
2018-06-23T14:48:44.352Z,35.59
2018-06-23T14:51:13.542Z,35.89
2018-06-23T14:53:42.327Z,35.01
2018-06-23T14:56:11.443Z,35.38
2018-06-23T14:58:40.233Z,35.35
2018-06-23T15:01:09.295Z,34.84
2018-06-23T15:03:38.030Z,35.82
2018-06-23T15:06:08.125Z,34.86
2018-06-23T15:08:47.976Z,35.00
2018-06-23T15:11:28.175Z,34.81
2018-06-23T15:13:58.332Z,35.37
2018-06-23T15:16:27.061Z,35.98
2018-06-23T15:18:55.997Z,36.45
2018-06-23T15:21:24.711Z,35.98
2018-06-23T15:23:53.364Z,36.30
2018-06-23T15:26:22.123Z,35.74
2018-06-23T15:28:50.680Z,35.57
2018-06-23T15:31:19.323Z,35.30
2018-06-23T15:33:47.897Z,36.29
2018-06-23T15:36:16.607Z,36.58
2018-06-23T15:38:45.529Z,36.60
2018-06-23T15:41:14.592Z,36.67
2018-06-23T15:43:43.373Z,35.67
2018-06-23T15:46:12.269Z,35.65
2018-06-23T15:48:41.039Z,36.64
2018-06-23T15:51:09.819Z,36.80
2018-06-23T15:53:38.598Z,36.35
2018-06-23T15:56:07.443Z,36.35
2018-06-23T15:58:36.285Z,35.56
2018-06-23T16:01:05.275Z,36.11
2018-06-23T16:03:34.016Z,35.94
2018-06-23T16:06:02.686Z,35.58
2018-06-23T16:08:31.308Z,34.79
2018-06-23T16:10:59.981Z,35.82
2018-06-23T16:13:28.671Z,34.96
2018-06-23T16:15:57.432Z,35.18
2018-06-23T16:18:26.202Z,35.75
2018-06-23T16:20:54.930Z,36.29
2018-06-23T16:23:23.617Z,36.41
2018-06-23T16:25:52.488Z,35.51
2018-06-23T16:28:22.454Z,34.53
2018-06-23T16:30:51.429Z,34.94
2018-06-23T16:33:20.211Z,34.77
2018-06-23T16:35:48.788Z,34.44
2018-06-23T16:38:17.508Z,34.25
2018-06-23T16:40:46.341Z,34.26
2018-06-23T16:43:15.059Z,35.71
2018-06-23T16:48:17.811Z,33.51
2018-06-23T16:50:47.424Z,33.46
2018-06-23T16:53:16.666Z,33.93
2018-06-23T16:55:46.502Z,33.63
2018-06-23T16:58:15.423Z,33.87
2018-06-23T17:00:44.036Z,33.17
2018-06-23T17:03:13.283Z,34.19
2018-06-23T17:05:42.562Z,33.68
2018-06-23T17:08:11.781Z,33.66
2018-06-23T17:10:40.755Z,34.25
2018-06-23T17:13:09.413Z,34.25
2018-06-23T17:15:38.023Z,34.93
2018-06-23T17:18:06.934Z,35.02
2018-06-23T17:20:35.541Z,34.80
2018-06-23T17:23:04.334Z,34.83
2018-06-23T17:25:33.150Z,35.67
2018-06-23T17:28:02.646Z,35.21
2018-06-23T17:30:31.381Z,35.43
2018-06-23T17:33:00.938Z,36.20
2018-06-23T17:35:29.711Z,36.57
2018-06-23T17:37:58.627Z,36.79
2018-06-23T17:40:27.375Z,36.55
2018-06-23T17:42:55.916Z,37.16
2018-06-23T17:45:24.508Z,37.56
2018-06-23T17:47:53.248Z,37.33
2018-06-23T17:50:21.927Z,37.17
2018-06-23T17:52:50.654Z,37.22
2018-06-23T17:55:19.672Z,37.37
2018-06-23T17:57:48.548Z,37.48
2018-06-23T18:00:17.282Z,37.67
2018-06-23T18:02:46.249Z,37.43
2018-06-23T18:05:15.899Z,38.18
2018-06-23T18:07:44.767Z,39.04
2018-06-23T18:10:13.455Z,38.67
2018-06-23T18:12:43.152Z,38.43
2018-06-23T18:15:12.089Z,38.83
2018-06-23T18:17:41.059Z,38.52
2018-06-23T18:20:09.794Z,39.09
2018-06-23T18:22:38.728Z,39.68
2018-06-23T18:25:07.496Z,39.28
2018-06-23T18:27:36.937Z,38.93
2018-06-23T18:30:06.017Z,39.66
2018-06-23T18:32:35.152Z,39.32
2018-06-23T18:35:04.043Z,39.12
2018-06-23T18:37:34.827Z,39.71
2018-06-23T18:40:04.376Z,39.08
2018-06-23T18:42:33.016Z,40.00
2018-06-23T18:45:01.964Z,40.50
2018-06-23T18:47:30.756Z,40.41
2018-06-23T18:49:59.450Z,39.50
2018-06-23T18:52:28.258Z,40.19
2018-06-23T18:54:57.244Z,40.67
2018-06-23T18:57:26.050Z,40.22
2018-06-23T18:59:55.033Z,40.75
2018-06-23T19:02:24.068Z,41.27
2018-06-23T19:04:52.882Z,40.66
2018-06-23T19:07:21.672Z,41.41
2018-06-23T19:09:50.593Z,41.51
2018-06-23T19:12:19.604Z,41.70
2018-06-23T19:14:48.367Z,42.11
2018-06-23T19:17:16.940Z,42.11
2018-06-23T19:19:45.698Z,42.37
2018-06-23T19:22:14.353Z,42.32
2018-06-23T19:24:43.146Z,42.95
2018-06-23T19:27:11.985Z,42.83
2018-06-23T19:29:40.871Z,43.17
2018-06-23T19:32:09.618Z,42.91
2018-06-23T19:34:38.496Z,43.05
2018-06-23T19:37:07.305Z,43.76
2018-06-23T19:39:35.918Z,43.39
2018-06-23T19:42:04.547Z,43.60
2018-06-23T19:44:34.186Z,44.58
2018-06-23T19:47:02.802Z,44.13
2018-06-23T19:49:31.413Z,45.03
2018-06-23T19:51:59.930Z,45.07
2018-06-23T19:54:28.907Z,44.77
2018-06-23T19:56:57.538Z,45.28
2018-06-23T19:59:26.125Z,45.10
2018-06-23T20:01:54.683Z,45.52
2018-06-23T20:04:23.259Z,44.84
2018-06-23T20:06:51.857Z,45.02
2018-06-23T20:09:20.547Z,45.25
2018-06-23T20:11:49.209Z,44.78
2018-06-23T20:14:18.069Z,45.49
2018-06-23T20:16:46.847Z,45.65
2018-06-23T20:19:15.478Z,46.35
2018-06-23T20:21:44.692Z,45.87
2018-06-23T20:24:13.527Z,46.33
2018-06-23T20:26:42.053Z,46.20
2018-06-23T20:29:10.567Z,47.08
2018-06-23T20:31:39.445Z,46.42
2018-06-23T20:34:08.016Z,47.26
2018-06-23T20:36:36.639Z,47.57
2018-06-23T20:39:07.518Z,47.04
2018-06-23T20:41:36.289Z,47.61
2018-06-23T20:44:04.879Z,46.59
2018-06-23T20:46:33.576Z,47.26
2018-06-23T20:49:02.234Z,46.90
2018-06-23T20:51:31.033Z,47.39
2018-06-23T20:54:00.321Z,47.41
2018-06-23T20:56:29.151Z,48.29
2018-06-23T20:58:57.773Z,47.88
2018-06-23T21:01:26.800Z,48.05
2018-06-23T21:03:55.544Z,47.94
2018-06-23T21:06:24.224Z,48.08
2018-06-23T21:08:52.805Z,47.48
2018-06-23T21:11:21.518Z,47.38
2018-06-23T21:13:50.312Z,47.95
2018-06-23T21:16:19.000Z,48.26
2018-06-23T21:18:47.549Z,48.61
2018-06-23T21:21:16.552Z,48.56
2018-06-23T21:23:45.240Z,48.50
2018-06-23T21:26:13.954Z,49.07
2018-06-23T21:28:42.470Z,48.86
2018-06-23T21:31:10.982Z,48.12
2018-06-23T21:33:39.424Z,48.86
2018-06-23T21:36:08.179Z,48.97
2018-06-23T21:38:36.889Z,49.09
2018-06-23T21:41:05.964Z,49.50
2018-06-23T21:43:35.256Z,49.52
2018-06-23T21:46:04.026Z,49.63
2018-06-23T21:48:32.828Z,49.69
2018-06-23T21:51:01.535Z,49.73
2018-06-23T21:53:30.496Z,50.39
2018-06-23T21:55:59.582Z,50.36
2018-06-23T21:58:28.222Z,50.22
2018-06-23T22:01:01.394Z,50.31
2018-06-23T22:03:30.556Z,50.33
2018-06-23T22:05:59.231Z,50.60
2018-06-23T22:08:27.927Z,50.96
2018-06-23T22:10:56.651Z,50.53
2018-06-23T22:13:25.547Z,49.89
2018-06-23T22:15:54.636Z,49.81
2018-06-23T22:18:23.247Z,50.73
2018-06-23T22:20:51.774Z,50.30
2018-06-23T22:23:20.278Z,50.83
2018-06-23T22:25:48.867Z,50.53
2018-06-23T22:28:17.364Z,50.67
2018-06-23T22:30:45.919Z,51.00
2018-06-23T22:33:14.539Z,50.31
2018-06-23T22:35:43.391Z,50.68
2018-06-23T22:38:11.951Z,50.75
2018-06-23T22:40:40.619Z,51.03
2018-06-23T22:43:09.240Z,51.04
2018-06-23T22:45:37.728Z,51.16
2018-06-23T22:48:06.493Z,51.17
2018-06-23T22:50:35.090Z,50.67
2018-06-23T22:53:03.670Z,51.15
2018-06-23T22:55:33.218Z,50.43
2018-06-23T22:58:01.832Z,51.51
2018-06-23T23:00:30.576Z,51.46
2018-06-23T23:02:59.256Z,51.38
2018-06-23T23:05:27.863Z,51.34
2018-06-23T23:07:56.527Z,50.38
2018-06-23T23:10:25.109Z,50.30
2018-06-23T23:12:53.743Z,51.19
2018-06-23T23:15:22.395Z,51.04
2018-06-23T23:17:50.947Z,51.37
2018-06-23T23:20:19.449Z,51.24
2018-06-23T23:22:48.016Z,51.72
2018-06-23T23:25:16.645Z,51.19
2018-06-23T23:27:45.231Z,51.91
2018-06-23T23:30:14.648Z,51.06
2018-06-23T23:32:43.263Z,51.26
2018-06-23T23:35:11.943Z,51.60
2018-06-23T23:37:40.540Z,52.11
2018-06-23T23:40:09.132Z,51.30
2018-06-23T23:42:37.636Z,52.06
2018-06-23T23:45:06.258Z,51.53
2018-06-23T23:47:34.902Z,52.00
2018-06-23T23:50:03.431Z,51.78
2018-06-23T23:52:31.973Z,52.06
2018-06-23T23:55:00.624Z,52.12
2018-06-23T23:57:29.264Z,52.19
2018-06-23T23:59:57.778Z,51.74
